sensor_id;sensor_type;location;lat;lon;timestamp;temperature;humidity
18823;DHT22;9540;51.550;7.980;2024-01-16T00:02:02;0.80;99.90
18823;DHT22;9540;51.550;7.980;2024-01-16T00:04:29;0.80;99.90
18823;DHT22;9540;51.550;7.980;2024-01-16T00:06:56;0.80;99.90
18823;DHT22;9540;51.550;7.980;2024-01-16T00:09:23;0.80;99.90
18823;DHT22;9540;51.550;7.980;2024-01-16T00:11:50;0.90;99.90
18823;DHT22;9540;51.550;7.980;2024-01-16T00:14:17;0.90;99.90
18823;DHT22;9540;51.550;7.980;2024-01-16T00:16:45;0.90;99.90
18823;DHT22;9540;51.550;7.980;2024-01-16T00:19:14;0.90;99.90
18823;DHT22;9540;51.550;7.980;2024-01-16T00:21:42;0.90;99.90
18823;DHT22;9540;51.550;7.980;2024-01-16T00:24:11;0.90;99.90
18823;DHT22;9540;51.550;7.980;2024-01-16T00:26:38;0.90;99.90
18823;DHT22;9540;51.550;7.980;2024-01-16T00:29:05;0.90;99.90
18823;DHT22;9540;51.550;7.980;2024-01-16T00:31:32;0.90;99.90
18823;DHT22;9540;51.550;7.980;2024-01-16T00:34:00;0.90;99.90
18823;DHT22;9540;51.550;7.980;2024-01-16T00:36:28;0.90;99.90
18823;DHT22;9540;51.550;7.980;2024-01-16T00:38:56;0.90;99.90
18823;DHT22;9540;51.550;7.980;2024-01-16T00:41:23;0.90;99.90
18823;DHT22;9540;51.550;7.980;2024-01-16T00:43:50;0.90;99.90
18823;DHT22;9540;51.550;7.980;2024-01-16T00:46:17;0.90;99.90
18823;DHT22;9540;51.550;7.980;2024-01-16T00:48:44;0.90;99.90
18823;DHT22;9540;51.550;7.980;2024-01-16T00:51:11;0.90;99.90
18823;DHT22;9540;51.550;7.980;2024-01-16T00:53:41;0.90;99.90
18823;DHT22;9540;51.550;7.980;2024-01-16T00:56:09;0.90;99.90
18823;DHT22;9540;51.550;7.980;2024-01-16T00:58:36;0.90;99.90
18823;DHT22;9540;51.550;7.980;2024-01-16T01:01:03;0.90;99.90
18823;DHT22;9540;51.550;7.980;2024-01-16T01:03:30;0.90;99.90
18823;DHT22;9540;51.550;7.980;2024-01-16T01:05:57;0.90;99.90
18823;DHT22;9540;51.550;7.980;2024-01-16T01:08:26;0.80;99.90
18823;DHT22;9540;51.550;7.980;2024-01-16T01:10:55;0.80;99.90
18823;DHT22;9540;51.550;7.980;2024-01-16T01:13:22;0.70;99.90
18823;DHT22;9540;51.550;7.980;2024-01-16T01:15:50;0.70;99.90
18823;DHT22;9540;51.550;7.980;2024-01-16T01:18:17;0.70;99.90
18823;DHT22;9540;51.550;7.980;2024-01-16T01:20:44;0.70;99.90
18823;DHT22;9540;51.550;7.980;2024-01-16T01:23:12;0.70;99.90
18823;DHT22;9540;51.550;7.980;2024-01-16T01:25:39;0.70;99.90
18823;DHT22;9540;51.550;7.980;2024-01-16T01:28:07;0.70;99.90
18823;DHT22;9540;51.550;7.980;2024-01-16T01:30:34;0.70;99.90
18823;DHT22;9540;51.550;7.980;2024-01-16T01:33:01;0.70;99.90
18823;DHT22;9540;51.550;7.980;2024-01-16T01:35:29;0.70;99.90
18823;DHT22;9540;51.550;7.980;2024-01-16T01:37:56;0.70;99.90
18823;DHT22;9540;51.550;7.980;2024-01-16T01:40:23;0.80;99.90
18823;DHT22;9540;51.550;7.980;2024-01-16T01:42:50;0.80;99.90
18823;DHT22;9540;51.550;7.980;2024-01-16T01:45:19;0.80;99.90
18823;DHT22;9540;51.550;7.980;2024-01-16T01:47:47;0.80;99.90
18823;DHT22;9540;51.550;7.980;2024-01-16T01:50:14;0.80;99.90
18823;DHT22;9540;51.550;7.980;2024-01-16T01:52:42;0.70;99.90
18823;DHT22;9540;51.550;7.980;2024-01-16T01:55:11;0.70;99.90
18823;DHT22;9540;51.550;7.980;2024-01-16T01:57:39;0.60;99.90
18823;DHT22;9540;51.550;7.980;2024-01-16T02:00:09;0.60;99.90
18823;DHT22;9540;51.550;7.980;2024-01-16T02:02:38;0.60;99.90
18823;DHT22;9540;51.550;7.980;2024-01-16T02:05:06;0.60;99.90
18823;DHT22;9540;51.550;7.980;2024-01-16T02:07:34;0.60;99.90
18823;DHT22;9540;51.550;7.980;2024-01-16T02:10:02;0.60;99.90
18823;DHT22;9540;51.550;7.980;2024-01-16T02:12:30;0.60;99.90
18823;DHT22;9540;51.550;7.980;2024-01-16T02:14:57;0.60;99.90
18823;DHT22;9540;51.550;7.980;2024-01-16T02:17:24;0.60;99.90
18823;DHT22;9540;51.550;7.980;2024-01-16T02:19:52;0.70;99.90
18823;DHT22;9540;51.550;7.980;2024-01-16T02:22:20;0.70;99.90
18823;DHT22;9540;51.550;7.980;2024-01-16T02:24:49;0.60;99.90
18823;DHT22;9540;51.550;7.980;2024-01-16T02:27:16;0.60;99.90
18823;DHT22;9540;51.550;7.980;2024-01-16T02:29:43;0.50;99.90
18823;DHT22;9540;51.550;7.980;2024-01-16T02:32:12;0.50;99.90
18823;DHT22;9540;51.550;7.980;2024-01-16T02:34:40;0.50;99.90
18823;DHT22;9540;51.550;7.980;2024-01-16T02:37:07;0.50;99.90
18823;DHT22;9540;51.550;7.980;2024-01-16T02:39:34;0.50;99.90
18823;DHT22;9540;51.550;7.980;2024-01-16T02:42:06;0.50;99.90
18823;DHT22;9540;51.550;7.980;2024-01-16T02:44:33;0.40;99.90
18823;DHT22;9540;51.550;7.980;2024-01-16T02:47:00;0.40;99.90
18823;DHT22;9540;51.550;7.980;2024-01-16T02:49:27;0.40;99.90
18823;DHT22;9540;51.550;7.980;2024-01-16T02:51:57;0.40;99.90
18823;DHT22;9540;51.550;7.980;2024-01-16T02:54:24;0.50;99.90
18823;DHT22;9540;51.550;7.980;2024-01-16T02:56:51;0.50;99.90
18823;DHT22;9540;51.550;7.980;2024-01-16T02:59:19;0.50;99.90
18823;DHT22;9540;51.550;7.980;2024-01-16T03:01:46;0.50;99.90
18823;DHT22;9540;51.550;7.980;2024-01-16T03:04:13;0.50;99.90
18823;DHT22;9540;51.550;7.980;2024-01-16T03:06:40;0.60;99.90
18823;DHT22;9540;51.550;7.980;2024-01-16T03:09:07;0.60;99.90
18823;DHT22;9540;51.550;7.980;2024-01-16T03:11:34;0.60;99.90
18823;DHT22;9540;51.550;7.980;2024-01-16T03:14:02;0.60;99.90
18823;DHT22;9540;51.550;7.980;2024-01-16T03:16:30;0.60;99.90
18823;DHT22;9540;51.550;7.980;2024-01-16T03:18:58;0.60;99.90
18823;DHT22;9540;51.550;7.980;2024-01-16T03:21:25;0.70;99.90
18823;DHT22;9540;51.550;7.980;2024-01-16T03:23:52;0.70;99.90
18823;DHT22;9540;51.550;7.980;2024-01-16T03:26:19;0.60;99.90
18823;DHT22;9540;51.550;7.980;2024-01-16T03:28:46;0.70;99.90
18823;DHT22;9540;51.550;7.980;2024-01-16T03:31:13;0.60;99.90
18823;DHT22;9540;51.550;7.980;2024-01-16T03:33:42;0.50;99.90
18823;DHT22;9540;51.550;7.980;2024-01-16T03:36:09;0.50;99.90
18823;DHT22;9540;51.550;7.980;2024-01-16T03:38:36;0.50;99.90
18823;DHT22;9540;51.550;7.980;2024-01-16T03:41:03;0.40;99.90
18823;DHT22;9540;51.550;7.980;2024-01-16T03:43:32;0.40;99.90
18823;DHT22;9540;51.550;7.980;2024-01-16T03:45:59;0.40;99.90
18823;DHT22;9540;51.550;7.980;2024-01-16T03:48:26;0.40;99.90
18823;DHT22;9540;51.550;7.980;2024-01-16T03:50:55;0.30;99.90
18823;DHT22;9540;51.550;7.980;2024-01-16T03:53:22;0.40;99.90
18823;DHT22;9540;51.550;7.980;2024-01-16T03:55:50;0.30;99.90
18823;DHT22;9540;51.550;7.980;2024-01-16T03:58:20;0.30;99.90
18823;DHT22;9540;51.550;7.980;2024-01-16T04:00:48;0.40;99.90
18823;DHT22;9540;51.550;7.980;2024-01-16T04:03:16;0.40;99.90
18823;DHT22;9540;51.550;7.980;2024-01-16T04:05:46;0.50;99.90
18823;DHT22;9540;51.550;7.980;2024-01-16T04:08:15;0.50;99.90
18823;DHT22;9540;51.550;7.980;2024-01-16T04:10:42;0.50;99.90
18823;DHT22;9540;51.550;7.980;2024-01-16T04:13:09;0.50;99.90
18823;DHT22;9540;51.550;7.980;2024-01-16T04:15:38;0.50;99.90
18823;DHT22;9540;51.550;7.980;2024-01-16T04:18:05;0.50;99.90
18823;DHT22;9540;51.550;7.980;2024-01-16T04:20:32;0.50;99.90
18823;DHT22;9540;51.550;7.980;2024-01-16T04:22:59;0.50;99.90
18823;DHT22;9540;51.550;7.980;2024-01-16T04:25:28;0.50;99.90
18823;DHT22;9540;51.550;7.980;2024-01-16T04:27:55;0.50;99.90
18823;DHT22;9540;51.550;7.980;2024-01-16T04:30:28;0.50;99.90
18823;DHT22;9540;51.550;7.980;2024-01-16T04:32:55;0.50;99.90
18823;DHT22;9540;51.550;7.980;2024-01-16T04:35:22;0.50;99.90
18823;DHT22;9540;51.550;7.980;2024-01-16T04:37:49;0.60;99.90
18823;DHT22;9540;51.550;7.980;2024-01-16T04:40:17;0.50;99.90
18823;DHT22;9540;51.550;7.980;2024-01-16T04:42:45;0.60;99.90
18823;DHT22;9540;51.550;7.980;2024-01-16T04:45:12;0.60;99.90
18823;DHT22;9540;51.550;7.980;2024-01-16T04:47:39;0.60;99.90
18823;DHT22;9540;51.550;7.980;2024-01-16T04:50:06;0.70;99.90
18823;DHT22;9540;51.550;7.980;2024-01-16T04:52:34;0.70;99.90
18823;DHT22;9540;51.550;7.980;2024-01-16T04:55:01;0.70;99.90
18823;DHT22;9540;51.550;7.980;2024-01-16T04:57:28;0.70;99.90
18823;DHT22;9540;51.550;7.980;2024-01-16T04:59:56;0.70;99.90
18823;DHT22;9540;51.550;7.980;2024-01-16T05:02:23;0.80;99.90
18823;DHT22;9540;51.550;7.980;2024-01-16T05:04:50;0.80;99.90
18823;DHT22;9540;51.550;7.980;2024-01-16T05:07:18;0.80;99.90
18823;DHT22;9540;51.550;7.980;2024-01-16T05:09:58;0.80;99.90
18823;DHT22;9540;51.550;7.980;2024-01-16T05:12:25;0.90;99.90
18823;DHT22;9540;51.550;7.980;2024-01-16T05:14:52;0.80;99.90
18823;DHT22;9540;51.550;7.980;2024-01-16T05:17:20;0.90;99.90
18823;DHT22;9540;51.550;7.980;2024-01-16T05:19:48;0.90;99.90
18823;DHT22;9540;51.550;7.980;2024-01-16T05:22:15;0.90;99.90
18823;DHT22;9540;51.550;7.980;2024-01-16T05:24:42;0.90;99.90
18823;DHT22;9540;51.550;7.980;2024-01-16T05:27:09;0.90;99.90
18823;DHT22;9540;51.550;7.980;2024-01-16T05:29:36;0.80;99.90
18823;DHT22;9540;51.550;7.980;2024-01-16T05:32:04;0.90;99.90
18823;DHT22;9540;51.550;7.980;2024-01-16T05:34:31;0.90;99.90
18823;DHT22;9540;51.550;7.980;2024-01-16T05:36:58;0.90;99.90
18823;DHT22;9540;51.550;7.980;2024-01-16T05:39:25;0.90;99.90
18823;DHT22;9540;51.550;7.980;2024-01-16T05:41:52;0.90;99.90
18823;DHT22;9540;51.550;7.980;2024-01-16T05:44:19;0.80;99.90
18823;DHT22;9540;51.550;7.980;2024-01-16T05:46:46;0.90;99.90
18823;DHT22;9540;51.550;7.980;2024-01-16T05:49:13;0.80;99.90
18823;DHT22;9540;51.550;7.980;2024-01-16T05:51:41;0.80;99.90
18823;DHT22;9540;51.550;7.980;2024-01-16T05:54:08;0.80;99.90
18823;DHT22;9540;51.550;7.980;2024-01-16T05:56:36;0.80;99.90
18823;DHT22;9540;51.550;7.980;2024-01-16T05:59:03;0.80;99.90
18823;DHT22;9540;51.550;7.980;2024-01-16T06:01:30;0.80;99.90
18823;DHT22;9540;51.550;7.980;2024-01-16T06:03:57;0.80;99.90
18823;DHT22;9540;51.550;7.980;2024-01-16T06:06:24;0.80;99.90
18823;DHT22;9540;51.550;7.980;2024-01-16T06:08:52;0.80;99.90
18823;DHT22;9540;51.550;7.980;2024-01-16T06:11:29;0.80;99.90
18823;DHT22;9540;51.550;7.980;2024-01-16T06:13:56;0.80;99.90
18823;DHT22;9540;51.550;7.980;2024-01-16T06:16:23;0.80;99.90
18823;DHT22;9540;51.550;7.980;2024-01-16T06:18:52;0.90;99.90
18823;DHT22;9540;51.550;7.980;2024-01-16T06:21:19;0.80;99.90
18823;DHT22;9540;51.550;7.980;2024-01-16T06:23:46;0.80;99.90
18823;DHT22;9540;51.550;7.980;2024-01-16T06:26:15;0.80;99.90
18823;DHT22;9540;51.550;7.980;2024-01-16T06:28:42;0.90;99.90
18823;DHT22;9540;51.550;7.980;2024-01-16T06:31:09;0.90;99.90
18823;DHT22;9540;51.550;7.980;2024-01-16T06:33:36;0.90;99.90
18823;DHT22;9540;51.550;7.980;2024-01-16T06:36:04;0.80;99.90
18823;DHT22;9540;51.550;7.980;2024-01-16T06:38:31;0.90;99.90
18823;DHT22;9540;51.550;7.980;2024-01-16T06:40:58;0.90;99.90
18823;DHT22;9540;51.550;7.980;2024-01-16T06:43:27;0.90;99.90
18823;DHT22;9540;51.550;7.980;2024-01-16T06:45:54;0.90;99.90
18823;DHT22;9540;51.550;7.980;2024-01-16T06:48:22;0.90;99.90
18823;DHT22;9540;51.550;7.980;2024-01-16T06:50:49;0.90;99.90
18823;DHT22;9540;51.550;7.980;2024-01-16T06:53:16;0.90;99.90
18823;DHT22;9540;51.550;7.980;2024-01-16T06:55:43;0.90;99.90
18823;DHT22;9540;51.550;7.980;2024-01-16T06:58:10;0.90;99.90
18823;DHT22;9540;51.550;7.980;2024-01-16T07:00:39;0.90;99.90
18823;DHT22;9540;51.550;7.980;2024-01-16T07:03:07;0.90;99.90
18823;DHT22;9540;51.550;7.980;2024-01-16T07:05:34;0.90;99.90
18823;DHT22;9540;51.550;7.980;2024-01-16T07:08:01;0.90;99.90
18823;DHT22;9540;51.550;7.980;2024-01-16T07:10:28;0.90;99.90
18823;DHT22;9540;51.550;7.980;2024-01-16T07:12:55;1.00;99.90
18823;DHT22;9540;51.550;7.980;2024-01-16T07:15:22;1.00;99.90
18823;DHT22;9540;51.550;7.980;2024-01-16T07:17:50;0.90;99.90
18823;DHT22;9540;51.550;7.980;2024-01-16T07:20:18;1.00;99.90
18823;DHT22;9540;51.550;7.980;2024-01-16T07:22:45;1.00;99.90
18823;DHT22;9540;51.550;7.980;2024-01-16T07:25:12;1.00;99.90
18823;DHT22;9540;51.550;7.980;2024-01-16T07:27:40;1.00;99.90
18823;DHT22;9540;51.550;7.980;2024-01-16T07:30:08;1.00;99.90
18823;DHT22;9540;51.550;7.980;2024-01-16T07:32:36;1.00;99.90
18823;DHT22;9540;51.550;7.980;2024-01-16T07:35:05;1.00;99.90
18823;DHT22;9540;51.550;7.980;2024-01-16T07:37:32;1.00;99.90
18823;DHT22;9540;51.550;7.980;2024-01-16T07:39:59;1.00;99.90
18823;DHT22;9540;51.550;7.980;2024-01-16T07:42:26;1.00;99.90
18823;DHT22;9540;51.550;7.980;2024-01-16T07:44:59;1.00;99.90
18823;DHT22;9540;51.550;7.980;2024-01-16T07:47:26;1.00;99.90
18823;DHT22;9540;51.550;7.980;2024-01-16T07:49:53;1.00;99.90
18823;DHT22;9540;51.550;7.980;2024-01-16T07:52:22;1.00;99.90
18823;DHT22;9540;51.550;7.980;2024-01-16T07:54:49;1.00;99.90
18823;DHT22;9540;51.550;7.980;2024-01-16T07:57:16;1.10;99.90
18823;DHT22;9540;51.550;7.980;2024-01-16T07:59:43;1.10;99.90
18823;DHT22;9540;51.550;7.980;2024-01-16T08:02:10;1.10;99.90
18823;DHT22;9540;51.550;7.980;2024-01-16T08:04:37;1.10;99.90
18823;DHT22;9540;51.550;7.980;2024-01-16T08:07:04;1.10;99.90
18823;DHT22;9540;51.550;7.980;2024-01-16T08:09:32;1.10;99.90
18823;DHT22;9540;51.550;7.980;2024-01-16T08:12:00;1.10;99.90
18823;DHT22;9540;51.550;7.980;2024-01-16T08:14:28;1.00;99.90
18823;DHT22;9540;51.550;7.980;2024-01-16T08:16:55;1.10;99.90
18823;DHT22;9540;51.550;7.980;2024-01-16T08:19:22;1.10;99.90
18823;DHT22;9540;51.550;7.980;2024-01-16T08:21:49;1.10;99.90
18823;DHT22;9540;51.550;7.980;2024-01-16T08:24:17;1.10;99.90
18823;DHT22;9540;51.550;7.980;2024-01-16T08:26:45;1.10;99.90
18823;DHT22;9540;51.550;7.980;2024-01-16T08:29:12;1.10;99.90
18823;DHT22;9540;51.550;7.980;2024-01-16T08:31:40;1.20;99.90
18823;DHT22;9540;51.550;7.980;2024-01-16T08:34:07;1.20;99.90
18823;DHT22;9540;51.550;7.980;2024-01-16T08:36:34;1.20;99.90
18823;DHT22;9540;51.550;7.980;2024-01-16T08:39:01;1.20;99.90
18823;DHT22;9540;51.550;7.980;2024-01-16T08:41:28;1.20;99.90
18823;DHT22;9540;51.550;7.980;2024-01-16T08:43:57;1.20;99.90
18823;DHT22;9540;51.550;7.980;2024-01-16T08:46:24;1.20;99.90
18823;DHT22;9540;51.550;7.980;2024-01-16T08:48:51;1.20;99.90
18823;DHT22;9540;51.550;7.980;2024-01-16T08:51:18;1.20;99.90
18823;DHT22;9540;51.550;7.980;2024-01-16T08:53:45;1.20;99.90
18823;DHT22;9540;51.550;7.980;2024-01-16T08:56:12;1.20;99.90
18823;DHT22;9540;51.550;7.980;2024-01-16T08:58:39;1.20;99.90
18823;DHT22;9540;51.550;7.980;2024-01-16T09:01:08;1.20;99.90
18823;DHT22;9540;51.550;7.980;2024-01-16T09:03:36;1.20;99.90
18823;DHT22;9540;51.550;7.980;2024-01-16T09:06:03;1.20;99.90
18823;DHT22;9540;51.550;7.980;2024-01-16T09:08:30;1.20;99.90
18823;DHT22;9540;51.550;7.980;2024-01-16T09:10:57;1.20;99.90
18823;DHT22;9540;51.550;7.980;2024-01-16T09:13:24;1.20;99.90
18823;DHT22;9540;51.550;7.980;2024-01-16T09:15:51;1.20;99.90
18823;DHT22;9540;51.550;7.980;2024-01-16T09:18:20;1.20;99.90
18823;DHT22;9540;51.550;7.980;2024-01-16T09:20:47;1.30;99.90
18823;DHT22;9540;51.550;7.980;2024-01-16T09:23:14;1.20;99.90
18823;DHT22;9540;51.550;7.980;2024-01-16T09:25:41;1.20;99.90
18823;DHT22;9540;51.550;7.980;2024-01-16T09:28:08;1.20;99.90
18823;DHT22;9540;51.550;7.980;2024-01-16T09:30:38;1.20;99.90
18823;DHT22;9540;51.550;7.980;2024-01-16T09:33:05;1.20;99.90
18823;DHT22;9540;51.550;7.980;2024-01-16T09:35:34;1.20;99.90
18823;DHT22;9540;51.550;7.980;2024-01-16T09:38:01;1.20;99.90
18823;DHT22;9540;51.550;7.980;2024-01-16T09:40:29;1.30;99.90
18823;DHT22;9540;51.550;7.980;2024-01-16T09:42:56;1.30;99.90
18823;DHT22;9540;51.550;7.980;2024-01-16T09:45:24;1.30;99.90
18823;DHT22;9540;51.550;7.980;2024-01-16T09:47:53;1.30;99.90
18823;DHT22;9540;51.550;7.980;2024-01-16T09:50:20;1.30;99.90
18823;DHT22;9540;51.550;7.980;2024-01-16T09:52:49;1.30;99.90
18823;DHT22;9540;51.550;7.980;2024-01-16T09:55:16;1.30;99.90
18823;DHT22;9540;51.550;7.980;2024-01-16T09:57:45;1.30;99.90
18823;DHT22;9540;51.550;7.980;2024-01-16T10:00:13;1.30;99.90
18823;DHT22;9540;51.550;7.980;2024-01-16T10:02:41;1.30;99.90
18823;DHT22;9540;51.550;7.980;2024-01-16T10:05:09;1.30;99.90
18823;DHT22;9540;51.550;7.980;2024-01-16T10:07:37;1.40;99.90
18823;DHT22;9540;51.550;7.980;2024-01-16T10:10:07;1.30;99.90
18823;DHT22;9540;51.550;7.980;2024-01-16T10:12:37;1.30;99.90
18823;DHT22;9540;51.550;7.980;2024-01-16T10:15:06;1.30;99.90
18823;DHT22;9540;51.550;7.980;2024-01-16T10:17:38;1.40;99.90
18823;DHT22;9540;51.550;7.980;2024-01-16T10:20:06;1.40;99.90
18823;DHT22;9540;51.550;7.980;2024-01-16T10:22:34;1.50;99.90
18823;DHT22;9540;51.550;7.980;2024-01-16T10:25:10;1.50;99.90
18823;DHT22;9540;51.550;7.980;2024-01-16T10:27:42;1.50;99.90
18823;DHT22;9540;51.550;7.980;2024-01-16T10:30:09;1.60;99.90
18823;DHT22;9540;51.550;7.980;2024-01-16T10:32:39;1.60;99.90
18823;DHT22;9540;51.550;7.980;2024-01-16T10:35:08;1.70;99.90
18823;DHT22;9540;51.550;7.980;2024-01-16T10:37:45;1.70;99.90
18823;DHT22;9540;51.550;7.980;2024-01-16T10:40:18;1.80;99.90
18823;DHT22;9540;51.550;7.980;2024-01-16T10:42:45;1.90;99.90
18823;DHT22;9540;51.550;7.980;2024-01-16T10:45:17;2.00;99.90
18823;DHT22;9540;51.550;7.980;2024-01-16T10:47:46;2.10;99.90
18823;DHT22;9540;51.550;7.980;2024-01-16T10:50:13;2.10;99.90
18823;DHT22;9540;51.550;7.980;2024-01-16T10:52:46;2.20;99.90
18823;DHT22;9540;51.550;7.980;2024-01-16T10:55:21;2.30;99.90
18823;DHT22;9540;51.550;7.980;2024-01-16T10:57:48;2.30;99.90
18823;DHT22;9540;51.550;7.980;2024-01-16T11:00:20;2.30;99.90
18823;DHT22;9540;51.550;7.980;2024-01-16T11:02:54;2.20;99.90
18823;DHT22;9540;51.550;7.980;2024-01-16T11:05:22;2.30;99.90
18823;DHT22;9540;51.550;7.980;2024-01-16T11:07:50;2.30;99.90
18823;DHT22;9540;51.550;7.980;2024-01-16T11:10:17;2.30;99.90
18823;DHT22;9540;51.550;7.980;2024-01-16T11:12:46;2.40;99.90
18823;DHT22;9540;51.550;7.980;2024-01-16T11:15:14;2.30;99.90
18823;DHT22;9540;51.550;7.980;2024-01-16T11:17:44;2.30;99.90
18823;DHT22;9540;51.550;7.980;2024-01-16T11:20:12;2.20;99.90
18823;DHT22;9540;51.550;7.980;2024-01-16T11:22:43;2.30;99.90
18823;DHT22;9540;51.550;7.980;2024-01-16T11:25:10;2.40;99.90
18823;DHT22;9540;51.550;7.980;2024-01-16T11:27:40;2.30;99.90
18823;DHT22;9540;51.550;7.980;2024-01-16T11:30:10;2.20;99.90
18823;DHT22;9540;51.550;7.980;2024-01-16T11:32:38;2.20;99.90
18823;DHT22;9540;51.550;7.980;2024-01-16T11:35:10;2.00;99.90
18823;DHT22;9540;51.550;7.980;2024-01-16T11:37:40;2.00;99.90
18823;DHT22;9540;51.550;7.980;2024-01-16T11:40:24;2.00;99.90
18823;DHT22;9540;51.550;7.980;2024-01-16T11:42:53;2.00;99.90
18823;DHT22;9540;51.550;7.980;2024-01-16T11:45:51;2.10;99.90
18823;DHT22;9540;51.550;7.980;2024-01-16T11:48:19;2.00;99.90
18823;DHT22;9540;51.550;7.980;2024-01-16T11:50:47;2.20;99.90
18823;DHT22;9540;51.550;7.980;2024-01-16T11:53:36;2.50;99.90
18823;DHT22;9540;51.550;7.980;2024-01-16T11:56:41;3.20;99.90
18823;DHT22;9540;51.550;7.980;2024-01-16T12:02:14;4.20;99.90
18823;DHT22;9540;51.550;7.980;2024-01-16T12:04:52;4.20;99.90
18823;DHT22;9540;51.550;7.980;2024-01-16T12:07:20;4.20;99.90
18823;DHT22;9540;51.550;7.980;2024-01-16T12:09:47;4.40;99.90
18823;DHT22;9540;51.550;7.980;2024-01-16T12:12:15;5.10;99.90
18823;DHT22;9540;51.550;7.980;2024-01-16T12:14:51;5.10;99.90
18823;DHT22;9540;51.550;7.980;2024-01-16T12:17:20;4.30;99.90
18823;DHT22;9540;51.550;7.980;2024-01-16T12:19:47;3.80;99.90
18823;DHT22;9540;51.550;7.980;2024-01-16T12:22:16;3.30;99.90
18823;DHT22;9540;51.550;7.980;2024-01-16T12:24:44;3.10;99.90
18823;DHT22;9540;51.550;7.980;2024-01-16T12:27:13;3.70;99.90
18823;DHT22;9540;51.550;7.980;2024-01-16T12:29:41;4.50;99.90
18823;DHT22;9540;51.550;7.980;2024-01-16T12:32:08;4.90;99.90
18823;DHT22;9540;51.550;7.980;2024-01-16T12:34:46;5.80;99.90
18823;DHT22;9540;51.550;7.980;2024-01-16T12:37:13;5.80;99.90
18823;DHT22;9540;51.550;7.980;2024-01-16T12:39:40;5.80;99.90
18823;DHT22;9540;51.550;7.980;2024-01-16T12:42:09;5.30;99.90
18823;DHT22;9540;51.550;7.980;2024-01-16T12:44:37;4.60;99.90
18823;DHT22;9540;51.550;7.980;2024-01-16T12:47:04;4.10;99.90
18823;DHT22;9540;51.550;7.980;2024-01-16T12:49:31;3.80;99.90
18823;DHT22;9540;51.550;7.980;2024-01-16T12:52:20;4.00;99.90
18823;DHT22;9540;51.550;7.980;2024-01-16T12:54:48;4.00;99.90
18823;DHT22;9540;51.550;7.980;2024-01-16T12:57:19;3.80;99.90
18823;DHT22;9540;51.550;7.980;2024-01-16T12:59:47;3.90;99.90
18823;DHT22;9540;51.550;7.980;2024-01-16T13:02:21;3.80;99.90
18823;DHT22;9540;51.550;7.980;2024-01-16T13:04:55;4.10;99.90
18823;DHT22;9540;51.550;7.980;2024-01-16T13:07:24;4.30;99.90
18823;DHT22;9540;51.550;7.980;2024-01-16T13:10:06;4.20;99.90
18823;DHT22;9540;51.550;7.980;2024-01-16T13:12:33;4.10;99.90
18823;DHT22;9540;51.550;7.980;2024-01-16T13:15:01;3.90;99.90
18823;DHT22;9540;51.550;7.980;2024-01-16T13:17:32;3.60;99.90
18823;DHT22;9540;51.550;7.980;2024-01-16T13:19:59;3.60;99.90
18823;DHT22;9540;51.550;7.980;2024-01-16T13:22:27;3.50;99.90
18823;DHT22;9540;51.550;7.980;2024-01-16T13:24:54;3.70;99.90
18823;DHT22;9540;51.550;7.980;2024-01-16T13:27:23;3.60;99.90
18823;DHT22;9540;51.550;7.980;2024-01-16T13:29:52;3.50;99.90
18823;DHT22;9540;51.550;7.980;2024-01-16T13:32:19;3.30;99.90
18823;DHT22;9540;51.550;7.980;2024-01-16T13:34:47;2.90;99.90
18823;DHT22;9540;51.550;7.980;2024-01-16T13:37:20;2.80;99.90
18823;DHT22;9540;51.550;7.980;2024-01-16T13:39:49;2.60;99.90
18823;DHT22;9540;51.550;7.980;2024-01-16T13:42:16;2.60;99.90
18823;DHT22;9540;51.550;7.980;2024-01-16T13:44:45;2.50;99.90
18823;DHT22;9540;51.550;7.980;2024-01-16T13:47:15;2.30;99.90
18823;DHT22;9540;51.550;7.980;2024-01-16T13:49:44;2.20;99.90
18823;DHT22;9540;51.550;7.980;2024-01-16T13:52:11;2.10;99.90
18823;DHT22;9540;51.550;7.980;2024-01-16T13:54:38;2.00;99.90
18823;DHT22;9540;51.550;7.980;2024-01-16T13:57:07;2.00;99.90
18823;DHT22;9540;51.550;7.980;2024-01-16T13:59:34;1.90;99.90
18823;DHT22;9540;51.550;7.980;2024-01-16T14:02:02;1.80;99.90
18823;DHT22;9540;51.550;7.980;2024-01-16T14:04:30;1.70;99.90
18823;DHT22;9540;51.550;7.980;2024-01-16T14:06:57;1.70;99.90
18823;DHT22;9540;51.550;7.980;2024-01-16T14:09:24;1.70;99.90
18823;DHT22;9540;51.550;7.980;2024-01-16T14:11:51;1.50;99.90
18823;DHT22;9540;51.550;7.980;2024-01-16T14:14:19;1.60;99.90
18823;DHT22;9540;51.550;7.980;2024-01-16T14:16:46;1.60;99.90
18823;DHT22;9540;51.550;7.980;2024-01-16T14:19:17;1.50;99.90
18823;DHT22;9540;51.550;7.980;2024-01-16T14:21:44;1.50;99.90
18823;DHT22;9540;51.550;7.980;2024-01-16T14:24:12;1.50;99.90
18823;DHT22;9540;51.550;7.980;2024-01-16T14:26:42;1.40;99.90
18823;DHT22;9540;51.550;7.980;2024-01-16T14:29:11;1.40;99.90
18823;DHT22;9540;51.550;7.980;2024-01-16T14:31:39;1.40;99.90
18823;DHT22;9540;51.550;7.980;2024-01-16T14:34:10;1.20;99.90
18823;DHT22;9540;51.550;7.980;2024-01-16T14:36:39;1.10;99.90
18823;DHT22;9540;51.550;7.980;2024-01-16T14:39:06;1.00;99.90
18823;DHT22;9540;51.550;7.980;2024-01-16T14:41:35;0.90;99.90
18823;DHT22;9540;51.550;7.980;2024-01-16T14:44:02;0.80;99.90
18823;DHT22;9540;51.550;7.980;2024-01-16T14:46:31;0.70;99.90
18823;DHT22;9540;51.550;7.980;2024-01-16T14:49:00;0.60;99.90
18823;DHT22;9540;51.550;7.980;2024-01-16T14:51:27;0.60;99.90
18823;DHT22;9540;51.550;7.980;2024-01-16T14:53:55;0.60;99.90
18823;DHT22;9540;51.550;7.980;2024-01-16T14:56:22;0.60;99.90
18823;DHT22;9540;51.550;7.980;2024-01-16T14:58:49;0.50;99.90
18823;DHT22;9540;51.550;7.980;2024-01-16T15:01:17;0.50;99.90
18823;DHT22;9540;51.550;7.980;2024-01-16T15:03:45;0.50;99.90
18823;DHT22;9540;51.550;7.980;2024-01-16T15:06:13;0.50;99.90
18823;DHT22;9540;51.550;7.980;2024-01-16T15:08:41;0.50;99.90
18823;DHT22;9540;51.550;7.980;2024-01-16T15:11:08;0.50;99.90
18823;DHT22;9540;51.550;7.980;2024-01-16T15:13:36;0.40;99.90
18823;DHT22;9540;51.550;7.980;2024-01-16T15:16:03;0.40;99.90
18823;DHT22;9540;51.550;7.980;2024-01-16T15:18:30;0.30;99.90
18823;DHT22;9540;51.550;7.980;2024-01-16T15:20:58;0.30;99.90
18823;DHT22;9540;51.550;7.980;2024-01-16T15:23:26;0.20;99.90
18823;DHT22;9540;51.550;7.980;2024-01-16T15:25:53;0.20;99.90
18823;DHT22;9540;51.550;7.980;2024-01-16T15:28:20;0.10;99.90
18823;DHT22;9540;51.550;7.980;2024-01-16T15:30:47;0.00;99.90
18823;DHT22;9540;51.550;7.980;2024-01-16T15:33:14;0.00;99.90
18823;DHT22;9540;51.550;7.980;2024-01-16T15:35:41;-0.10;99.90
18823;DHT22;9540;51.550;7.980;2024-01-16T15:38:08;-0.20;99.90
18823;DHT22;9540;51.550;7.980;2024-01-16T15:40:38;-0.20;99.90
18823;DHT22;9540;51.550;7.980;2024-01-16T15:43:05;-0.30;99.90
18823;DHT22;9540;51.550;7.980;2024-01-16T15:45:32;-0.30;99.90
18823;DHT22;9540;51.550;7.980;2024-01-16T15:47:59;-0.40;99.90
18823;DHT22;9540;51.550;7.980;2024-01-16T15:50:26;-0.40;99.90
18823;DHT22;9540;51.550;7.980;2024-01-16T15:52:54;-0.30;99.90
18823;DHT22;9540;51.550;7.980;2024-01-16T15:55:21;-0.30;99.90
18823;DHT22;9540;51.550;7.980;2024-01-16T15:57:50;-0.30;99.90
18823;DHT22;9540;51.550;7.980;2024-01-16T16:00:18;-0.30;99.90
18823;DHT22;9540;51.550;7.980;2024-01-16T16:02:45;-0.30;99.90
18823;DHT22;9540;51.550;7.980;2024-01-16T16:05:14;-0.40;99.90
18823;DHT22;9540;51.550;7.980;2024-01-16T16:07:42;-0.40;99.90
18823;DHT22;9540;51.550;7.980;2024-01-16T16:10:09;-0.50;99.90
18823;DHT22;9540;51.550;7.980;2024-01-16T16:12:36;-0.40;99.90